createdAt,value
2023-01-27T00:00:11.972Z,1.02
2023-01-27T00:02:42.178Z,0.60
2023-01-27T00:05:09.858Z,0.86
2023-01-27T00:07:36.449Z,1.02
2023-01-27T00:10:03.757Z,0.84
2023-01-27T00:12:49.143Z,1.02
2023-01-27T00:15:15.918Z,0.21
2023-01-27T00:17:42.580Z,0.32
2023-01-27T00:20:09.531Z,0.73
2023-01-27T00:22:54.961Z,0.97
2023-01-27T00:25:21.382Z,0.30
2023-01-27T00:27:47.850Z,0.65
2023-01-27T00:30:14.471Z,1.04
2023-01-27T00:32:59.908Z,1.16
2023-01-27T00:35:26.337Z,1.25
2023-01-27T00:37:54.271Z,0.66
2023-01-27T00:40:20.784Z,0.51
2023-01-27T00:42:47.144Z,0.91
2023-01-27T00:45:32.520Z,1.23
2023-01-27T00:47:58.933Z,1.40
2023-01-27T00:50:25.414Z,1.07
2023-01-27T00:52:52.785Z,1.21
2023-01-27T00:55:19.418Z,1.01
2023-01-27T00:57:45.909Z,0.74
2023-01-27T01:00:13.087Z,0.70
2023-01-27T01:02:39.755Z,0.56
2023-01-27T01:05:06.431Z,0.72
2023-01-27T01:07:32.944Z,1.00
2023-01-27T01:09:59.361Z,1.21
2023-01-27T01:12:26.792Z,0.60
2023-01-27T01:14:53.251Z,0.61
2023-01-27T01:17:19.650Z,0.71
2023-01-27T01:19:46.060Z,1.10
2023-01-27T01:22:12.478Z,0.55
2023-01-27T01:24:40.711Z,0.84
2023-01-27T01:27:07.327Z,1.11
2023-01-27T01:29:33.982Z,1.20
2023-01-27T01:32:00.450Z,0.74
2023-01-27T01:34:26.877Z,1.10
2023-01-27T01:36:53.267Z,0.93
2023-01-27T01:39:19.736Z,0.55
2023-01-27T01:41:46.978Z,0.94
2023-01-27T01:44:22.487Z,0.54
2023-01-27T01:46:48.990Z,0.97
2023-01-27T01:49:17.203Z,1.07
2023-01-27T01:51:46.398Z,0.66
2023-01-27T01:54:26.693Z,0.18
2023-01-27T01:57:01.470Z,0.27
2023-01-27T01:59:43.559Z,0.25
2023-01-27T02:02:15.746Z,0.33
2023-01-27T02:04:45.381Z,0.43
2023-01-27T02:07:18.064Z,0.66
2023-01-27T02:09:44.490Z,0.81
2023-01-27T02:12:11.368Z,0.38
2023-01-27T02:14:39.188Z,0.66
2023-01-27T02:17:05.721Z,0.77
2023-01-27T02:19:37.153Z,0.80
2023-01-27T02:22:04.847Z,0.86
2023-01-27T02:24:37.356Z,0.91
2023-01-27T02:27:04.160Z,0.50
2023-01-27T02:29:30.589Z,0.49
2023-01-27T02:31:57.289Z,0.42
2023-01-27T02:34:27.204Z,0.71
2023-01-27T02:36:57.416Z,0.50
2023-01-27T02:39:26.393Z,0.56
2023-01-27T02:41:54.878Z,0.73
2023-01-27T02:44:21.345Z,0.75
2023-01-27T02:46:48.024Z,0.37
2023-01-27T02:49:14.979Z,0.33
2023-01-27T02:51:41.563Z,0.46
2023-01-27T02:54:08.293Z,0.58
2023-01-27T02:56:35.034Z,0.77
2023-01-27T02:59:02.353Z,0.20
2023-01-27T03:01:36.098Z,0.34
2023-01-27T03:04:02.599Z,0.81
2023-01-27T03:06:29.051Z,0.96
2023-01-27T03:08:55.599Z,0.28
2023-01-27T03:11:40.915Z,0.32
2023-01-27T03:14:08.120Z,0.87
2023-01-27T03:16:54.101Z,0.86
2023-01-27T03:19:20.526Z,0.52
2023-01-27T03:21:51.062Z,0.25
2023-01-27T03:24:18.019Z,0.81
2023-01-27T03:26:44.887Z,0.71
2023-01-27T03:29:32.762Z,0.39
2023-01-27T03:32:00.560Z,0.40
2023-01-27T03:34:27.881Z,0.75
2023-01-27T03:37:19.939Z,0.68
2023-01-27T03:40:05.221Z,0.79
2023-01-27T03:42:50.482Z,0.74
2023-01-27T03:45:35.787Z,0.36
2023-01-27T03:48:02.227Z,-0.34
2023-01-27T03:50:37.730Z,0.48
2023-01-27T03:53:05.273Z,0.54
2023-01-27T03:55:32.339Z,0.42
2023-01-27T03:58:17.983Z,0.46
2023-01-27T04:00:45.168Z,0.51
2023-01-27T04:03:30.435Z,0.54
2023-01-27T04:06:15.603Z,0.26
2023-01-27T04:08:42.437Z,0.35
2023-01-27T04:11:27.970Z,0.50
2023-01-27T04:13:55.019Z,0.60
2023-01-27T04:16:28.929Z,-0.19
2023-01-27T04:18:55.902Z,0.25
2023-01-27T04:21:23.200Z,0.13
2023-01-27T04:23:49.668Z,-0.09
2023-01-27T04:26:16.116Z,0.45
2023-01-27T04:28:44.562Z,0.22
2023-01-27T04:31:11.303Z,0.27
2023-01-27T04:33:37.762Z,0.11
2023-01-27T04:36:04.335Z,0.41
2023-01-27T04:38:30.830Z,0.73
2023-01-27T04:40:57.400Z,1.03
2023-01-27T04:43:23.892Z,1.05
2023-01-27T04:45:50.472Z,0.51
2023-01-27T04:48:16.912Z,-0.09
2023-01-27T04:50:43.406Z,0.20
2023-01-27T04:53:09.873Z,-0.12
2023-01-27T04:55:36.620Z,0.18
2023-01-27T04:58:03.766Z,0.28
2023-01-27T05:00:30.258Z,0.06
2023-01-27T05:02:56.652Z,0.14
2023-01-27T05:05:23.494Z,0.31
2023-01-27T05:07:49.882Z,0.58
2023-01-27T05:10:16.720Z,0.81
2023-01-27T05:12:43.144Z,0.77
2023-01-27T05:15:09.811Z,0.67
2023-01-27T05:17:36.261Z,0.59
2023-01-27T05:20:02.722Z,0.46
2023-01-27T05:22:29.146Z,0.37
2023-01-27T05:24:55.610Z,0.47
2023-01-27T05:27:22.184Z,-0.46
2023-01-27T05:29:48.617Z,-0.46
2023-01-27T05:32:15.025Z,0.02
2023-01-27T05:34:41.443Z,0.43
2023-01-27T05:37:07.892Z,0.55
2023-01-27T05:39:34.319Z,0.25
2023-01-27T05:42:00.850Z,0.17
2023-01-27T05:44:27.283Z,-0.03
2023-01-27T05:46:53.748Z,-0.04
2023-01-27T05:49:20.177Z,0.30
2023-01-27T05:51:46.614Z,0.20
2023-01-27T05:54:13.380Z,0.23
2023-01-27T05:56:40.743Z,0.48
2023-01-27T05:59:07.795Z,0.10
2023-01-27T06:01:34.918Z,0.36
2023-01-27T06:04:01.699Z,0.50
2023-01-27T06:06:29.430Z,0.65
2023-01-27T06:08:56.066Z,0.41
2023-01-27T06:11:24.140Z,-0.02
2023-01-27T06:13:51.744Z,0.35
2023-01-27T06:16:19.118Z,0.75
2023-01-27T06:18:46.129Z,0.12
2023-01-27T06:21:14.030Z,0.26
2023-01-27T06:23:40.461Z,0.26
2023-01-27T06:26:09.440Z,-0.11
2023-01-27T06:28:36.585Z,-0.47
2023-01-27T06:31:07.712Z,-0.28
2023-01-27T06:33:34.199Z,0.03
2023-01-27T06:36:02.558Z,-0.28
2023-01-27T06:38:29.078Z,-0.69
2023-01-27T06:40:55.493Z,-1.16
2023-01-27T06:43:22.139Z,0.04
2023-01-27T06:45:49.515Z,-0.09
2023-01-27T06:48:16.035Z,0.03
2023-01-27T06:50:42.646Z,-0.42
2023-01-27T06:53:09.443Z,-0.50
2023-01-27T06:55:41.287Z,-0.35
2023-01-27T06:58:08.968Z,-0.10
2023-01-27T07:00:36.652Z,0.23
2023-01-27T07:03:03.994Z,-0.20
2023-01-27T07:05:30.861Z,0.30
2023-01-27T07:07:57.313Z,0.24
2023-01-27T07:10:23.705Z,-0.20
2023-01-27T07:12:50.074Z,-0.59
2023-01-27T07:15:16.513Z,-0.13
2023-01-27T07:17:43.064Z,0.40
2023-01-27T07:20:12.346Z,-0.04
2023-01-27T07:22:39.538Z,-0.36
2023-01-27T07:25:06.711Z,0.06
2023-01-27T07:27:33.161Z,0.12
2023-01-27T07:29:59.572Z,-0.08
2023-01-27T07:32:28.165Z,-0.36
2023-01-27T07:34:55.342Z,-0.24
2023-01-27T07:37:21.965Z,-0.43
2023-01-27T07:39:48.704Z,-0.34
2023-01-27T07:42:15.663Z,-0.98
2023-01-27T07:44:42.093Z,-0.09
2023-01-27T07:47:08.509Z,-0.32
2023-01-27T07:49:34.969Z,-0.50
2023-01-27T07:52:01.618Z,-0.26
2023-01-27T07:54:28.268Z,-0.57
2023-01-27T07:56:55.335Z,-0.64
2023-01-27T07:59:21.981Z,-0.73
2023-01-27T08:01:48.768Z,-0.86
2023-01-27T08:04:15.553Z,-0.69
2023-01-27T08:06:42.100Z,-0.50
2023-01-27T08:09:08.574Z,-0.56
2023-01-27T08:11:35.019Z,-0.25
2023-01-27T08:14:01.612Z,-0.31
2023-01-27T08:16:28.069Z,0.09
2023-01-27T08:18:54.873Z,-0.52
2023-01-27T08:21:21.487Z,-0.40
2023-01-27T08:23:47.968Z,-0.32
2023-01-27T08:26:14.426Z,-0.28
2023-01-27T08:28:41.343Z,-0.19
2023-01-27T08:31:08.852Z,-0.75
2023-01-27T08:33:35.722Z,-0.54
2023-01-27T08:36:03.509Z,-0.25
2023-01-27T08:38:30.042Z,-0.80
2023-01-27T08:40:56.472Z,-0.07
2023-01-27T08:43:22.907Z,-0.16
2023-01-27T08:45:51.925Z,-0.30
2023-01-27T08:48:18.332Z,-0.67
2023-01-27T08:50:44.747Z,-0.45
2023-01-27T08:53:11.165Z,-0.35
2023-01-27T08:55:37.572Z,0.16
2023-01-27T08:58:03.964Z,0.06
2023-01-27T09:00:30.485Z,-0.51
2023-01-27T09:02:56.877Z,-0.13
2023-01-27T09:05:23.475Z,-0.06
2023-01-27T09:07:49.986Z,-0.03
2023-01-27T09:10:16.877Z,-0.04
2023-01-27T09:12:44.051Z,-0.22
2023-01-27T09:15:11.406Z,-0.49
2023-01-27T09:17:37.882Z,-0.46
2023-01-27T09:20:04.480Z,-0.29
2023-01-27T09:22:31.328Z,-0.53
2023-01-27T09:24:57.796Z,-0.16
2023-01-27T09:27:37.267Z,-0.74
2023-01-27T09:30:05.037Z,-0.38
2023-01-27T09:32:31.429Z,-1.16
2023-01-27T09:34:57.791Z,-0.66
2023-01-27T09:37:26.884Z,-0.05
2023-01-27T09:39:56.820Z,0.46
2023-01-27T09:42:50.333Z,0.04
2023-01-27T09:45:19.807Z,-0.75
2023-01-27T09:48:12.587Z,-0.27
2023-01-27T09:50:48.525Z,-0.75
2023-01-27T09:53:33.477Z,-0.87
2023-01-27T09:56:05.009Z,-0.42
2023-01-27T09:59:00.933Z,-0.43
2023-01-27T10:01:30.443Z,-0.87
2023-01-27T10:04:15.208Z,-0.45
2023-01-27T10:06:53.875Z,-0.58
2023-01-27T10:09:23.345Z,-0.85
2023-01-27T10:11:58.902Z,-0.38
2023-01-27T10:14:25.315Z,-0.38
2023-01-27T10:17:10.697Z,-0.35
2023-01-27T10:19:54.535Z,-0.92
2023-01-27T10:22:29.221Z,-0.59
2023-01-27T10:25:19.048Z,-0.71
2023-01-27T10:27:47.617Z,-0.49
2023-01-27T10:30:16.756Z,-0.56
2023-01-27T10:32:49.390Z,-0.60
2023-01-27T10:35:22.028Z,-0.08
2023-01-27T10:37:54.450Z,-0.21
2023-01-27T10:40:27.511Z,-0.68
2023-01-27T10:43:02.128Z,0.04
2023-01-27T10:45:31.733Z,-0.38
2023-01-27T10:48:16.853Z,-0.28
2023-01-27T10:50:45.849Z,-0.63
2023-01-27T10:53:16.909Z,-0.96
2023-01-27T10:56:01.819Z,-0.53
2023-01-27T10:58:34.364Z,-0.31
2023-01-27T11:01:20.202Z,-0.11
2023-01-27T11:03:51.511Z,-0.59
2023-01-27T11:06:22.134Z,-0.45
2023-01-27T11:08:51.973Z,-0.88
2023-01-27T11:11:39.646Z,-0.46
2023-01-27T11:14:15.935Z,-0.07
2023-01-27T11:16:44.606Z,-0.35
2023-01-27T11:19:22.719Z,-0.91
2023-01-27T11:22:06.226Z,-0.62
2023-01-27T11:24:45.588Z,-0.81
2023-01-27T11:27:24.119Z,-0.60
2023-01-27T11:29:56.229Z,-0.53
2023-01-27T11:32:31.860Z,-0.62
2023-01-27T11:35:04.475Z,-0.33
2023-01-27T11:37:33.962Z,-0.96
2023-01-27T11:40:00.621Z,-1.07
2023-01-27T11:42:30.248Z,-0.31
2023-01-27T11:44:57.831Z,-0.52
2023-01-27T11:47:26.849Z,-0.59
2023-01-27T11:49:54.032Z,0.04
2023-01-27T11:52:22.305Z,-0.26
2023-01-27T11:54:52.478Z,-0.57
2023-01-27T11:57:20.770Z,-0.90
2023-01-27T11:59:48.494Z,-0.65
2023-01-27T12:02:25.431Z,-0.86
2023-01-27T12:05:07.189Z,-0.42
2023-01-27T12:07:54.404Z,-0.71
2023-01-27T12:10:22.102Z,-0.47
2023-01-27T12:12:48.532Z,-0.56
2023-01-27T12:15:16.044Z,-0.67
2023-01-27T12:17:46.923Z,-0.59
2023-01-27T12:20:20.071Z,-0.83
2023-01-27T12:22:48.434Z,-0.39
2023-01-27T12:25:19.809Z,-0.46
2023-01-27T12:27:51.460Z,-1.11
2023-01-27T12:30:21.130Z,-0.95
2023-01-27T12:32:47.975Z,-0.74
2023-01-27T12:35:33.370Z,-0.48
2023-01-27T12:38:03.252Z,-0.74
2023-01-27T12:40:29.766Z,-0.51
2023-01-27T12:43:02.321Z,-0.29
2023-01-27T12:45:35.545Z,-0.09
2023-01-27T12:48:02.034Z,-0.66
2023-01-27T12:50:28.425Z,-0.60
2023-01-27T12:52:54.828Z,-0.48
2023-01-27T12:55:34.163Z,-0.79
2023-01-27T12:58:00.888Z,-0.35
2023-01-27T13:00:27.911Z,-0.65
2023-01-27T13:03:01.122Z,-0.53
2023-01-27T13:05:27.623Z,-0.29
2023-01-27T13:07:54.221Z,-0.32
2023-01-27T13:10:22.739Z,-0.45
2023-01-27T13:12:54.174Z,-0.07
2023-01-27T13:15:21.784Z,0.05
2023-01-27T13:17:55.547Z,-0.11
2023-01-27T13:20:21.968Z,-0.41
2023-01-27T13:22:54.347Z,-0.15
2023-01-27T13:25:23.201Z,-0.16
2023-01-27T13:27:51.344Z,-0.24
2023-01-27T13:30:30.120Z,-0.41
2023-01-27T13:32:59.531Z,-0.42
2023-01-27T13:35:30.926Z,-0.33
2023-01-27T13:38:15.423Z,-0.59
2023-01-27T13:40:44.491Z,-0.19
2023-01-27T13:43:20.333Z,-0.36
2023-01-27T13:45:54.304Z,-0.36
2023-01-27T13:48:24.440Z,0.09
2023-01-27T13:50:58.286Z,-0.18
2023-01-27T13:53:25.188Z,-0.01
2023-01-27T13:56:19.620Z,-0.04
2023-01-27T13:58:46.066Z,-0.18
2023-01-27T14:01:25.224Z,-0.23
2023-01-27T14:04:05.459Z,-0.34
2023-01-27T14:06:37.903Z,-0.51
2023-01-27T14:09:17.813Z,-0.22
2023-01-27T14:12:07.331Z,-0.77
2023-01-27T14:14:56.099Z,-0.65
2023-01-27T14:17:27.117Z,-0.54
2023-01-27T14:19:56.318Z,-0.39
2023-01-27T14:22:22.824Z,-0.44
2023-01-27T14:24:49.454Z,-0.79
2023-01-27T14:27:27.359Z,-0.70
2023-01-27T14:29:58.192Z,-0.47
2023-01-27T14:32:35.076Z,-0.27
2023-01-27T14:35:09.844Z,-0.39
2023-01-27T14:37:55.300Z,-0.84
2023-01-27T14:40:29.143Z,-0.18
2023-01-27T14:42:55.537Z,-0.34
2023-01-27T14:45:24.720Z,-0.25
2023-01-27T14:47:57.568Z,-0.15
2023-01-27T14:50:26.965Z,0.12
2023-01-27T14:53:07.409Z,-0.26
2023-01-27T14:55:39.921Z,-0.47
2023-01-27T14:58:22.469Z,-0.44
2023-01-27T15:00:52.588Z,-0.27
2023-01-27T15:03:34.415Z,0.10
2023-01-27T15:06:11.901Z,-0.50
2023-01-27T15:08:42.999Z,-0.29
2023-01-27T15:11:28.303Z,-0.63
2023-01-27T15:13:57.543Z,-0.48
2023-01-27T15:16:24.016Z,-0.50
2023-01-27T15:19:01.098Z,-0.44
2023-01-27T15:21:30.611Z,-0.46
2023-01-27T15:24:03.574Z,-0.28
2023-01-27T15:26:31.374Z,-0.40
2023-01-27T15:28:58.268Z,-0.44
2023-01-27T15:31:26.389Z,-0.47
2023-01-27T15:33:55.906Z,-0.43
2023-01-27T15:36:29.855Z,-0.26
2023-01-27T15:39:11.473Z,-0.35
2023-01-27T15:41:50.362Z,-0.32
2023-01-27T15:44:19.744Z,-0.24
2023-01-27T15:46:47.865Z,-0.14
2023-01-27T15:49:17.278Z,0.17
2023-01-27T15:51:43.825Z,-0.07
2023-01-27T15:54:16.433Z,-0.13
2023-01-27T15:56:46.676Z,-0.16
2023-01-27T15:59:18.091Z,-0.19
2023-01-27T16:01:44.594Z,-0.44
2023-01-27T16:04:11.001Z,-0.38
2023-01-27T16:06:44.849Z,-0.19
2023-01-27T16:09:24.418Z,0.04
2023-01-27T16:11:58.601Z,-0.12
2023-01-27T16:14:32.842Z,-0.22
2023-01-27T16:17:15.808Z,-0.30
2023-01-27T16:20:05.242Z,-0.08
2023-01-27T16:22:32.970Z,-0.30
2023-01-27T16:25:03.800Z,-0.28
2023-01-27T16:27:33.259Z,-0.45
2023-01-27T16:30:11.936Z,-0.56
2023-01-27T16:32:41.857Z,-0.16
2023-01-27T16:35:17.148Z,-0.27
2023-01-27T16:37:59.672Z,-0.28
2023-01-27T16:40:27.575Z,-0.88
2023-01-27T16:42:53.965Z,-0.76
2023-01-27T16:45:21.910Z,-0.42
2023-01-27T16:47:52.815Z,-0.48
2023-01-27T16:50:38.475Z,-0.58
2023-01-27T16:53:07.144Z,-0.43
2023-01-27T16:55:33.617Z,-0.67
2023-01-27T16:58:01.660Z,-0.45
2023-01-27T17:00:35.867Z,-0.37
2023-01-27T17:03:11.143Z,-0.07
2023-01-27T17:05:38.191Z,-0.20
2023-01-27T17:08:24.317Z,-0.04
2023-01-27T17:11:04.090Z,-0.31
2023-01-27T17:13:44.961Z,-0.29
2023-01-27T17:16:14.238Z,-0.26
2023-01-27T17:18:52.308Z,-0.28
2023-01-27T17:21:34.634Z,-0.20
2023-01-27T17:24:04.228Z,-0.73
2023-01-27T17:26:30.939Z,-0.55
2023-01-27T17:28:57.732Z,-0.22
2023-01-27T17:31:24.897Z,-0.28
2023-01-27T17:33:56.487Z,-0.44
2023-01-27T17:36:22.902Z,-0.57
2023-01-27T17:38:50.692Z,-0.43
2023-01-27T17:41:23.359Z,-0.12
2023-01-27T17:43:50.016Z,0.09
2023-01-27T17:46:24.001Z,-0.09
2023-01-27T17:48:55.414Z,-0.24
2023-01-27T17:51:26.716Z,-0.84
2023-01-27T17:53:54.505Z,-0.87
2023-01-27T17:56:28.043Z,-0.52
2023-01-27T17:58:57.749Z,-0.63
2023-01-27T18:01:24.398Z,-0.61
2023-01-27T18:03:53.831Z,-0.33
2023-01-27T18:06:22.217Z,-0.64
2023-01-27T18:08:50.599Z,-0.40
2023-01-27T18:11:25.608Z,-0.53
2023-01-27T18:13:53.486Z,-0.32
2023-01-27T18:16:21.542Z,-0.56
2023-01-27T18:18:49.408Z,-0.34
2023-01-27T18:21:23.542Z,-0.43
2023-01-27T18:23:52.690Z,-0.81
2023-01-27T18:26:21.392Z,-0.68
2023-01-27T18:29:05.778Z,-0.25
2023-01-27T18:31:37.348Z,-0.58
2023-01-27T18:34:06.768Z,-0.28
2023-01-27T18:36:35.516Z,-0.47
2023-01-27T18:39:22.524Z,-0.23
2023-01-27T18:41:49.701Z,-0.67
2023-01-27T18:44:18.782Z,-0.44
2023-01-27T18:46:45.254Z,-0.52
2023-01-27T18:49:12.121Z,-0.50
2023-01-27T18:51:38.589Z,-0.19
2023-01-27T18:54:05.890Z,-0.27
2023-01-27T18:56:32.586Z,-0.68
2023-01-27T18:58:59.237Z,-0.74
2023-01-27T19:01:25.648Z,-0.41
2023-01-27T19:03:52.473Z,-0.29
2023-01-27T19:06:19.004Z,-0.35
2023-01-27T19:08:45.477Z,-0.32
2023-01-27T19:11:15.911Z,-0.28
2023-01-27T19:13:42.813Z,-0.23
2023-01-27T19:16:13.762Z,-0.41
2023-01-27T19:18:41.007Z,-0.49
2023-01-27T19:21:10.440Z,-0.39
2023-01-27T19:23:37.000Z,-0.10
2023-01-27T19:26:04.974Z,-0.30
2023-01-27T19:28:31.419Z,-0.48
2023-01-27T19:30:58.029Z,-0.38
2023-01-27T19:33:25.465Z,-0.30
2023-01-27T19:35:54.193Z,-0.45
2023-01-27T19:38:21.443Z,-0.56
2023-01-27T19:40:47.975Z,-0.37
2023-01-27T19:43:14.921Z,-0.36
2023-01-27T19:45:42.881Z,-0.36
2023-01-27T19:48:16.837Z,-0.75
2023-01-27T19:50:43.676Z,-0.36
2023-01-27T19:53:11.543Z,-0.57
2023-01-27T19:55:37.958Z,-0.03
2023-01-27T19:58:04.577Z,-0.30
2023-01-27T20:00:32.864Z,0.06
2023-01-27T20:02:59.704Z,0.01
2023-01-27T20:05:27.903Z,-0.04
2023-01-27T20:07:55.171Z,-0.47
2023-01-27T20:10:23.598Z,-0.49
2023-01-27T20:12:56.394Z,-0.10
2023-01-27T20:15:24.393Z,-0.26
2023-01-27T20:17:51.995Z,-0.11
2023-01-27T20:20:18.587Z,-0.02
2023-01-27T20:22:45.319Z,0.03
2023-01-27T20:25:13.952Z,-0.05
2023-01-27T20:27:40.943Z,-0.06
2023-01-27T20:30:07.672Z,0.21
2023-01-27T20:32:34.105Z,0.03
2023-01-27T20:35:00.537Z,0.37
2023-01-27T20:37:26.998Z,0.01
2023-01-27T20:39:53.423Z,0.02
2023-01-27T20:42:19.934Z,0.45
2023-01-27T20:44:46.339Z,0.19
2023-01-27T20:47:13.392Z,0.52
2023-01-27T20:49:39.805Z,0.35
2023-01-27T20:52:06.775Z,0.13
2023-01-27T20:54:33.201Z,0.19
2023-01-27T20:56:59.763Z,0.15
2023-01-27T20:59:26.445Z,0.37
2023-01-27T21:01:52.901Z,0.64
2023-01-27T21:04:19.314Z,0.73
2023-01-27T21:06:45.735Z,0.65
2023-01-27T21:09:12.143Z,0.41
2023-01-27T21:11:38.589Z,0.01
2023-01-27T21:14:05.092Z,0.23
2023-01-27T21:16:31.679Z,0.08
2023-01-27T21:18:58.156Z,0.12
2023-01-27T21:21:27.172Z,0.43
2023-01-27T21:23:57.583Z,0.51
2023-01-27T21:26:24.364Z,0.56
2023-01-27T21:28:50.857Z,0.33
2023-01-27T21:31:18.772Z,0.28
2023-01-27T21:33:49.968Z,-0.20
2023-01-27T21:36:17.336Z,0.36
2023-01-27T21:38:43.743Z,0.17
2023-01-27T21:41:13.316Z,0.04
2023-01-27T21:43:58.558Z,0.55
2023-01-27T21:46:25.127Z,0.26
2023-01-27T21:48:51.621Z,0.19
2023-01-27T21:51:18.081Z,0.09
2023-01-27T21:53:44.657Z,0.15
2023-01-27T21:56:11.185Z,0.44
2023-01-27T21:58:37.699Z,-0.11
2023-01-27T22:01:05.329Z,0.06
2023-01-27T22:03:31.814Z,-0.15
2023-01-27T22:05:58.215Z,0.18
2023-01-27T22:08:24.659Z,0.33
2023-01-27T22:10:51.078Z,-0.20
2023-01-27T22:13:17.506Z,0.13
2023-01-27T22:15:48.447Z,0.40
2023-01-27T22:18:14.872Z,-0.27
2023-01-27T22:20:41.353Z,0.21
2023-01-27T22:23:07.874Z,0.21
2023-01-27T22:25:34.362Z,0.52
2023-01-27T22:28:00.810Z,-0.18
2023-01-27T22:30:27.298Z,-0.03
2023-01-27T22:32:53.789Z,0.22
2023-01-27T22:35:20.204Z,0.38
2023-01-27T22:37:48.797Z,0.15
2023-01-27T22:40:16.378Z,-0.10
2023-01-27T22:42:42.815Z,-0.12
2023-01-27T22:45:09.944Z,0.01
2023-01-27T22:47:36.396Z,0.35
2023-01-27T22:50:02.869Z,0.37
2023-01-27T22:52:29.290Z,0.15
2023-01-27T22:54:55.667Z,-0.26
2023-01-27T22:57:22.056Z,0.04
2023-01-27T22:59:48.468Z,-0.01
2023-01-27T23:02:15.050Z,0.03
2023-01-27T23:04:41.495Z,0.33
2023-01-27T23:07:07.884Z,0.36
2023-01-27T23:09:34.308Z,0.15
2023-01-27T23:12:00.804Z,0.04
2023-01-27T23:14:27.228Z,-0.18
2023-01-27T23:16:53.797Z,-0.36
2023-01-27T23:19:21.863Z,-0.23
2023-01-27T23:21:48.393Z,-0.03
2023-01-27T23:24:15.399Z,-0.19
2023-01-27T23:26:41.915Z,-0.20
2023-01-27T23:29:22.951Z,-0.10
2023-01-27T23:31:51.502Z,-0.20
2023-01-27T23:34:18.008Z,-0.30
2023-01-27T23:36:44.443Z,-0.21
2023-01-27T23:39:14.407Z,-0.11
2023-01-27T23:41:40.925Z,0.06
2023-01-27T23:44:10.108Z,0.02
2023-01-27T23:46:36.549Z,-0.08
2023-01-27T23:49:02.981Z,-0.03
2023-01-27T23:51:29.491Z,-0.14
2023-01-27T23:53:55.898Z,0.02
2023-01-27T23:56:22.334Z,-0.03
2023-01-27T23:58:48.907Z,0.13
